createdAt,value
2019-06-20T00:00:46.492Z,14.18
2019-06-20T00:03:15.216Z,12.07
2019-06-20T00:05:43.980Z,13.35
2019-06-20T00:08:12.735Z,13.45
2019-06-20T00:10:41.473Z,12.78
2019-06-20T00:13:10.141Z,12.28
2019-06-20T00:15:39.656Z,13.10
2019-06-20T00:18:08.887Z,13.48
2019-06-20T00:20:48.944Z,12.82
2019-06-20T00:23:17.431Z,12.70
2019-06-20T00:25:45.890Z,12.90
2019-06-20T00:28:14.426Z,11.95
2019-06-20T00:30:43.013Z,12.90
2019-06-20T00:33:11.643Z,13.10
2019-06-20T00:35:40.111Z,12.10
2019-06-20T00:38:08.621Z,13.08
2019-06-20T00:40:37.175Z,11.50
2019-06-20T00:43:16.856Z,12.60
2019-06-20T00:45:35.985Z,12.35
2019-06-20T00:48:04.556Z,11.88
2019-06-20T00:50:33.010Z,11.70
2019-06-20T00:53:01.572Z,11.85
2019-06-20T00:55:30.240Z,10.90
2019-06-20T00:57:58.739Z,11.48
2019-06-20T01:00:27.348Z,11.63
2019-06-20T01:02:55.892Z,11.43
2019-06-20T01:05:24.870Z,10.98
2019-06-20T01:07:53.442Z,10.88
2019-06-20T01:10:22.083Z,11.63
2019-06-20T01:12:50.623Z,11.45
2019-06-20T01:15:19.359Z,11.53
2019-06-20T01:17:47.896Z,11.57
2019-06-20T01:20:16.806Z,11.00
2019-06-20T01:22:45.374Z,10.58
2019-06-20T01:25:14.997Z,11.15
2019-06-20T01:27:43.466Z,11.12
2019-06-20T01:30:12.778Z,10.72
2019-06-20T01:32:41.244Z,10.60
2019-06-20T01:35:10.986Z,11.22
2019-06-20T01:37:51.327Z,10.28
2019-06-20T01:40:19.783Z,10.65
2019-06-20T01:42:48.254Z,10.08
2019-06-20T01:45:16.971Z,10.08
2019-06-20T01:47:45.430Z,9.80
2019-06-20T01:50:15.236Z,9.98
2019-06-20T01:52:43.730Z,9.43
2019-06-20T01:55:12.538Z,9.95
2019-06-20T01:57:41.013Z,10.08
2019-06-20T02:00:11.336Z,9.60
2019-06-20T02:02:39.804Z,9.80
2019-06-20T02:05:08.510Z,9.40
2019-06-20T02:07:37.022Z,10.05
2019-06-20T02:10:07.278Z,9.78
2019-06-20T02:12:35.748Z,9.90
2019-06-20T02:15:05.254Z,9.45
2019-06-20T02:17:33.792Z,10.82
2019-06-20T02:20:02.253Z,9.98
2019-06-20T02:22:30.799Z,10.23
2019-06-20T02:24:59.283Z,10.23
2019-06-20T02:27:27.851Z,10.28
2019-06-20T02:29:56.383Z,10.70
2019-06-20T02:32:24.841Z,10.38
2019-06-20T02:34:53.340Z,10.72
2019-06-20T02:37:21.816Z,10.38
2019-06-20T02:40:02.309Z,10.08
2019-06-20T02:42:30.845Z,10.05
2019-06-20T02:44:59.323Z,10.82
2019-06-20T02:47:27.837Z,10.70
2019-06-20T02:49:56.320Z,10.60
2019-06-20T02:52:26.062Z,10.05
2019-06-20T02:54:54.634Z,10.60
2019-06-20T02:57:23.218Z,11.10
2019-06-20T02:59:51.747Z,10.93
2019-06-20T03:02:23.966Z,11.25
2019-06-20T03:04:52.448Z,10.48
2019-06-20T03:07:20.932Z,10.50
2019-06-20T03:09:49.676Z,10.93
2019-06-20T03:12:18.156Z,10.90
2019-06-20T03:14:46.619Z,11.10
2019-06-20T03:17:15.108Z,11.15
2019-06-20T03:19:43.560Z,11.05
2019-06-20T03:22:12.038Z,11.48
2019-06-20T03:24:40.571Z,11.60
2019-06-20T03:27:09.044Z,11.30
2019-06-20T03:29:37.531Z,11.30
2019-06-20T03:32:18.695Z,11.38
2019-06-20T03:37:14.933Z,10.70
2019-06-20T03:39:43.585Z,11.12
2019-06-20T03:42:12.068Z,11.10
2019-06-20T03:44:40.557Z,11.08
2019-06-20T03:47:09.125Z,10.82
2019-06-20T03:49:37.582Z,11.40
2019-06-20T03:52:06.064Z,11.85
2019-06-20T03:54:34.580Z,11.55
2019-06-20T03:57:03.050Z,11.35
2019-06-20T03:59:31.580Z,11.10
2019-06-20T04:02:00.081Z,11.12
2019-06-20T04:04:28.621Z,10.88
2019-06-20T04:06:57.154Z,11.30
2019-06-20T04:09:25.639Z,11.40
2019-06-20T04:11:54.192Z,11.05
2019-06-20T04:14:22.655Z,10.55
2019-06-20T04:16:51.156Z,10.55
2019-06-20T04:19:19.628Z,10.48
2019-06-20T04:21:48.159Z,10.25
2019-06-20T04:24:16.691Z,10.82
2019-06-20T04:26:45.266Z,9.95
2019-06-20T04:29:13.806Z,10.15
2019-06-20T04:31:42.408Z,10.45
2019-06-20T04:34:10.895Z,10.40
2019-06-20T04:36:39.498Z,11.75
2019-06-20T04:39:18.773Z,10.40
2019-06-20T04:41:38.415Z,11.20
2019-06-20T04:44:07.051Z,11.25
2019-06-20T04:49:19.735Z,10.63
2019-06-20T04:51:47.313Z,11.05
2019-06-20T04:54:15.784Z,10.88
2019-06-20T04:56:47.530Z,10.53
2019-06-20T04:59:16.014Z,10.68
2019-06-20T05:01:44.504Z,10.53
2019-06-20T05:04:13.078Z,9.88
2019-06-20T05:06:44.321Z,10.30
2019-06-20T05:09:12.801Z,10.23
2019-06-20T05:11:41.276Z,9.50
2019-06-20T05:14:09.748Z,10.08
2019-06-20T05:16:38.290Z,8.98
2019-06-20T05:19:06.857Z,9.45
2019-06-20T05:21:35.305Z,8.98
2019-06-20T05:24:03.798Z,8.78
2019-06-20T05:26:32.330Z,8.65
2019-06-20T05:29:00.819Z,8.58
2019-06-20T05:31:29.350Z,8.70
2019-06-20T05:33:57.838Z,8.35
2019-06-20T05:36:26.456Z,8.00
2019-06-20T05:38:54.917Z,7.72
2019-06-20T05:41:23.469Z,7.83
2019-06-20T05:43:51.973Z,7.92
2019-06-20T05:46:20.455Z,6.92
2019-06-20T05:48:48.936Z,7.08
2019-06-20T05:51:17.401Z,6.60
2019-06-20T05:53:45.883Z,5.78
2019-06-20T05:56:14.435Z,5.60
2019-06-20T05:58:42.906Z,5.33
2019-06-20T06:01:11.812Z,4.60
2019-06-20T06:03:40.608Z,4.28
2019-06-20T06:06:09.141Z,3.87
2019-06-20T06:08:37.612Z,4.40
2019-06-20T06:11:06.105Z,4.10
2019-06-20T06:13:34.565Z,3.72
2019-06-20T06:16:03.040Z,3.65
2019-06-20T06:18:31.594Z,3.30
2019-06-20T06:21:04.412Z,3.72
2019-06-20T06:23:32.884Z,3.47
2019-06-20T06:26:02.795Z,4.05
2019-06-20T06:28:31.275Z,3.50
2019-06-20T06:30:59.904Z,3.50
2019-06-20T06:33:28.777Z,3.37
2019-06-20T06:35:57.231Z,3.47
2019-06-20T06:38:25.709Z,3.22
2019-06-20T06:40:54.190Z,3.17
2019-06-20T06:43:22.692Z,3.37
2019-06-20T06:45:52.245Z,3.77
2019-06-20T06:48:20.934Z,3.42
2019-06-20T06:50:49.459Z,4.15
2019-06-20T06:53:17.954Z,4.03
2019-06-20T06:55:46.499Z,4.33
2019-06-20T06:58:14.958Z,3.72
2019-06-20T07:00:43.438Z,3.62
2019-06-20T07:03:11.976Z,3.67
2019-06-20T07:05:40.501Z,4.05
2019-06-20T07:08:09.073Z,3.70
2019-06-20T07:10:49.520Z,3.60
2019-06-20T07:13:18.058Z,3.40
2019-06-20T07:15:46.580Z,3.22
2019-06-20T07:18:15.044Z,4.30
2019-06-20T07:20:43.528Z,2.72
2019-06-20T07:23:11.982Z,2.65
2019-06-20T07:25:40.445Z,3.10
2019-06-20T07:28:08.914Z,3.00
2019-06-20T07:30:37.388Z,2.83
2019-06-20T07:33:05.997Z,2.87
2019-06-20T07:35:34.497Z,2.62
2019-06-20T07:38:03.000Z,2.37
2019-06-20T07:40:31.543Z,2.65
2019-06-20T07:43:00.028Z,2.70
2019-06-20T07:45:28.892Z,2.60
2019-06-20T07:47:57.366Z,2.50
2019-06-20T07:50:25.990Z,2.67
2019-06-20T07:53:02.013Z,2.83
2019-06-20T07:55:24.965Z,2.60
2019-06-20T07:57:53.562Z,2.77
2019-06-20T08:00:22.299Z,2.83
2019-06-20T08:02:50.840Z,2.70
2019-06-20T08:05:20.752Z,3.00
2019-06-20T08:07:49.248Z,2.70
2019-06-20T08:10:18.332Z,2.72
2019-06-20T08:12:46.957Z,2.75
2019-06-20T08:15:17.414Z,2.85
2019-06-20T08:17:46.151Z,2.58
2019-06-20T08:20:16.389Z,2.70
2019-06-20T08:22:45.022Z,2.55
2019-06-20T08:25:14.535Z,2.67
2019-06-20T08:27:52.939Z,2.70
2019-06-20T08:30:44.664Z,2.70
2019-06-20T08:33:13.204Z,2.58
2019-06-20T08:35:41.665Z,2.50
2019-06-20T08:38:10.226Z,2.87
2019-06-20T08:40:41.623Z,2.83
2019-06-20T08:43:10.437Z,3.00
2019-06-20T08:45:40.126Z,3.12
2019-06-20T08:48:08.661Z,3.00
2019-06-20T08:50:37.605Z,2.62
2019-06-20T08:53:06.376Z,2.90
2019-06-20T08:55:35.836Z,3.20
2019-06-20T08:58:05.614Z,2.83
2019-06-20T09:00:38.979Z,3.00
2019-06-20T09:03:07.734Z,2.70
2019-06-20T09:05:36.535Z,2.50
2019-06-20T09:08:06.771Z,2.70
2019-06-20T09:10:42.088Z,3.02
2019-06-20T09:13:12.482Z,2.45
2019-06-20T09:15:41.895Z,2.60
2019-06-20T09:20:56.169Z,2.60
2019-06-20T09:23:24.640Z,2.42
2019-06-20T09:25:53.097Z,2.15
2019-06-20T09:28:21.637Z,2.55
2019-06-20T09:30:50.671Z,2.25
2019-06-20T09:33:20.355Z,2.60
2019-06-20T09:38:34.550Z,2.72
2019-06-20T09:41:03.472Z,2.10
2019-06-20T09:43:32.034Z,2.00
2019-06-20T09:46:00.529Z,2.27
2019-06-20T09:48:29.025Z,2.30
2019-06-20T09:50:58.552Z,2.25
2019-06-20T09:53:27.154Z,2.30
2019-06-20T09:55:55.737Z,2.30
2019-06-20T09:58:24.244Z,2.05
2019-06-20T10:00:52.911Z,2.15
2019-06-20T10:03:21.423Z,1.77
2019-06-20T10:05:50.695Z,2.30
2019-06-20T10:08:19.336Z,2.42
2019-06-20T10:10:49.316Z,2.30
2019-06-20T10:13:18.048Z,2.00
2019-06-20T10:15:47.851Z,1.95
2019-06-20T10:18:16.429Z,2.20
2019-06-20T10:20:46.093Z,1.92
2019-06-20T10:23:15.256Z,2.37
2019-06-20T10:25:46.049Z,2.12
2019-06-20T10:28:13.886Z,2.10
2019-06-20T10:30:42.445Z,2.10
2019-06-20T10:33:10.981Z,2.40
2019-06-20T10:35:39.435Z,2.05
2019-06-20T10:38:07.935Z,2.40
2019-06-20T10:40:36.770Z,2.60
2019-06-20T10:43:05.598Z,2.37
2019-06-20T10:45:35.948Z,2.30
2019-06-20T10:48:04.844Z,2.55
2019-06-20T10:50:33.450Z,2.60
2019-06-20T10:53:01.946Z,2.60
2019-06-20T10:55:30.411Z,2.60
2019-06-20T10:57:58.959Z,2.40
2019-06-20T11:00:31.335Z,2.60
2019-06-20T11:02:58.256Z,2.50
2019-06-20T11:05:26.986Z,2.52
2019-06-20T11:07:55.628Z,2.67
2019-06-20T11:10:24.743Z,2.40
2019-06-20T11:12:55.986Z,2.37
2019-06-20T11:15:23.903Z,2.80
2019-06-20T11:17:55.943Z,2.25
2019-06-20T11:20:26.507Z,2.33
2019-06-20T11:22:56.131Z,1.95
2019-06-20T11:25:24.860Z,2.00
2019-06-20T11:27:54.541Z,2.45
2019-06-20T11:30:26.193Z,2.35
2019-06-20T11:32:54.750Z,2.20
2019-06-20T11:35:23.203Z,2.60
2019-06-20T11:37:51.690Z,2.20
2019-06-20T11:40:20.272Z,2.37
2019-06-20T11:42:49.979Z,2.05
2019-06-20T11:45:18.624Z,2.00
2019-06-20T11:47:47.433Z,2.58
2019-06-20T11:50:17.777Z,2.20
2019-06-20T11:52:46.259Z,2.40
2019-06-20T11:55:15.597Z,2.10
2019-06-20T11:57:44.324Z,2.40
2019-06-20T12:00:14.857Z,2.20
2019-06-20T12:02:44.178Z,2.62
2019-06-20T12:05:13.271Z,2.67
2019-06-20T12:07:43.663Z,2.65
2019-06-20T12:12:40.994Z,2.30
2019-06-20T12:15:10.509Z,2.30
2019-06-20T12:17:39.840Z,2.65
2019-06-20T12:20:10.304Z,2.70
2019-06-20T12:22:39.923Z,3.15
2019-06-20T12:25:09.670Z,2.45
2019-06-20T12:27:38.815Z,3.00
2019-06-20T12:30:13.708Z,2.95
2019-06-20T12:32:42.518Z,2.42
2019-06-20T12:35:12.018Z,2.70
2019-06-20T12:37:40.694Z,2.20
2019-06-20T12:40:10.112Z,2.22
2019-06-20T12:42:40.915Z,1.95
2019-06-20T12:47:38.794Z,2.00
2019-06-20T12:50:08.493Z,1.90
2019-06-20T12:52:37.590Z,1.75
2019-06-20T12:55:07.733Z,1.90
2019-06-20T12:57:38.451Z,1.90
2019-06-20T13:00:09.002Z,1.60
2019-06-20T13:02:38.637Z,1.50
2019-06-20T13:05:08.932Z,1.62
2019-06-20T13:07:40.543Z,1.75
2019-06-20T13:10:10.027Z,1.72
2019-06-20T13:12:40.714Z,1.95
2019-06-20T13:15:09.035Z,2.02
2019-06-20T13:17:39.301Z,1.72
2019-06-20T13:20:08.735Z,1.60
2019-06-20T13:22:39.010Z,1.65
2019-06-20T13:25:09.079Z,1.52
2019-06-20T13:27:39.075Z,1.67
2019-06-20T13:30:10.398Z,1.72
2019-06-20T13:32:40.262Z,1.70
2019-06-20T13:37:38.229Z,1.30
2019-06-20T13:40:12.103Z,1.32
2019-06-20T13:42:42.280Z,1.30
2019-06-20T13:45:16.690Z,1.32
2019-06-20T13:47:45.766Z,1.12
2019-06-20T13:50:15.298Z,1.52
2019-06-20T13:52:46.444Z,1.42
2019-06-20T13:55:14.417Z,1.77
2019-06-20T13:57:45.114Z,1.75
2019-06-20T14:00:15.656Z,1.67
2019-06-20T14:05:14.655Z,1.50
2019-06-20T14:07:48.462Z,1.65
2019-06-20T14:10:15.000Z,1.82
2019-06-20T14:12:44.714Z,1.75
2019-06-20T14:15:14.960Z,2.10
2019-06-20T14:17:44.818Z,1.50
2019-06-20T14:20:14.180Z,1.20
2019-06-20T14:22:42.897Z,1.10
2019-06-20T14:25:11.876Z,0.90
2019-06-20T14:27:40.722Z,1.10
2019-06-20T14:30:10.486Z,1.40
2019-06-20T14:32:39.111Z,1.00
2019-06-20T14:35:08.299Z,0.90
2019-06-20T14:37:36.844Z,1.02
2019-06-20T14:40:20.973Z,0.93
2019-06-20T14:42:50.276Z,0.90
2019-06-20T14:45:19.391Z,1.15
2019-06-20T14:47:48.422Z,1.20
2019-06-20T14:50:17.491Z,1.10
2019-06-20T14:52:48.205Z,1.20
2019-06-20T14:55:17.114Z,1.12
2019-06-20T14:57:46.966Z,1.05
2019-06-20T15:00:17.540Z,1.37
2019-06-20T15:02:47.632Z,1.25
2019-06-20T15:05:18.316Z,0.90
2019-06-20T15:07:49.203Z,1.10
2019-06-20T15:10:17.692Z,1.00
2019-06-20T15:12:47.926Z,0.82
2019-06-20T15:15:18.038Z,1.10
2019-06-20T15:17:49.217Z,1.10
2019-06-20T15:20:17.381Z,1.20
2019-06-20T15:22:47.372Z,1.05
2019-06-20T15:25:16.746Z,1.50
2019-06-20T15:27:47.249Z,1.00
2019-06-20T15:30:15.795Z,1.30
2019-06-20T15:32:55.327Z,1.20
2019-06-20T15:35:15.079Z,1.10
2019-06-20T15:37:43.656Z,1.10
2019-06-20T15:40:12.989Z,1.20
2019-06-20T15:42:41.603Z,1.20
2019-06-20T15:45:11.117Z,1.20
2019-06-20T15:47:39.675Z,1.20
2019-06-20T15:50:09.342Z,1.32
2019-06-20T15:52:41.249Z,1.30
2019-06-20T15:55:12.318Z,1.40
2019-06-20T15:57:41.300Z,1.22
2019-06-20T16:00:11.535Z,1.55
2019-06-20T16:02:40.228Z,1.40
2019-06-20T16:05:10.201Z,1.12
2019-06-20T16:07:38.761Z,1.37
2019-06-20T16:10:10.288Z,1.27
2019-06-20T16:12:38.960Z,1.45
2019-06-20T16:15:09.480Z,1.30
2019-06-20T16:17:37.989Z,1.22
2019-06-20T16:20:07.596Z,1.20
2019-06-20T16:22:36.108Z,1.20
2019-06-20T16:25:07.825Z,1.35
2019-06-20T16:27:36.525Z,1.65
2019-06-20T16:30:08.441Z,1.32
2019-06-20T16:32:36.907Z,1.40
2019-06-20T16:35:08.963Z,1.50
2019-06-20T16:37:37.482Z,1.40
2019-06-20T16:40:07.876Z,1.40
2019-06-20T16:42:37.238Z,1.47
2019-06-20T16:45:07.240Z,1.30
2019-06-20T16:47:35.875Z,1.40
2019-06-20T16:50:06.918Z,1.47
2019-06-20T16:52:35.606Z,1.40
2019-06-20T16:55:06.080Z,1.50
2019-06-20T16:57:34.571Z,1.27
2019-06-20T17:00:04.938Z,1.60
2019-06-20T17:02:33.474Z,1.50
2019-06-20T17:05:02.052Z,1.25
2019-06-20T17:07:30.517Z,1.40
2019-06-20T17:09:58.994Z,1.05
2019-06-20T17:12:27.566Z,1.10
2019-06-20T17:14:56.027Z,0.90
2019-06-20T17:17:24.582Z,0.80
2019-06-20T17:19:53.210Z,1.05
2019-06-20T17:22:21.740Z,0.93
2019-06-20T17:24:50.213Z,1.17
2019-06-20T17:27:18.719Z,1.00
2019-06-20T17:29:47.220Z,0.93
2019-06-20T17:32:15.688Z,0.85
2019-06-20T17:34:44.183Z,1.00
2019-06-20T17:37:12.736Z,1.00
2019-06-20T17:39:41.212Z,1.07
2019-06-20T17:42:09.771Z,1.10
2019-06-20T17:44:38.232Z,1.10
2019-06-20T17:47:06.684Z,1.10
2019-06-20T17:49:35.169Z,1.00
2019-06-20T17:52:03.834Z,1.00
2019-06-20T17:54:32.364Z,1.35
2019-06-20T17:57:00.866Z,1.20
2019-06-20T17:59:29.318Z,1.10
2019-06-20T18:01:57.786Z,1.15
2019-06-20T18:04:26.967Z,1.05
2019-06-20T18:06:55.516Z,1.32
2019-06-20T18:09:23.963Z,1.30
2019-06-20T18:11:52.424Z,1.22
2019-06-20T18:14:20.957Z,1.00
2019-06-20T18:16:49.503Z,1.25
2019-06-20T18:19:18.059Z,1.00
2019-06-20T18:21:46.508Z,1.40
2019-06-20T18:24:15.049Z,1.30
2019-06-20T18:26:43.526Z,1.10
2019-06-20T18:29:11.992Z,1.75
2019-06-20T18:31:42.463Z,1.50
2019-06-20T18:34:10.668Z,1.22
2019-06-20T18:36:39.119Z,1.30
2019-06-20T18:39:08.622Z,1.55
2019-06-20T18:41:37.203Z,1.10
2019-06-20T18:44:05.879Z,1.20
2019-06-20T18:46:34.333Z,1.32
2019-06-20T18:49:02.819Z,1.15
2019-06-20T18:51:31.361Z,1.32
2019-06-20T18:53:59.899Z,1.10
2019-06-20T18:56:28.476Z,1.05
2019-06-20T18:58:56.940Z,1.00
2019-06-20T19:01:25.468Z,1.20
2019-06-20T19:03:53.959Z,1.22
2019-06-20T19:09:09.569Z,1.50
2019-06-20T19:11:38.050Z,1.00
2019-06-20T19:14:06.522Z,1.07
2019-06-20T19:16:35.050Z,1.10
2019-06-20T19:19:03.571Z,1.10
2019-06-20T19:21:32.143Z,1.12
2019-06-20T19:24:01.726Z,1.20
2019-06-20T19:26:30.947Z,1.40
2019-06-20T19:28:59.468Z,1.60
2019-06-20T19:31:27.984Z,1.32
2019-06-20T19:33:56.540Z,1.15
2019-06-20T19:36:25.018Z,1.30
2019-06-20T19:38:53.584Z,1.35
2019-06-20T19:41:22.114Z,1.40
2019-06-20T19:43:50.578Z,1.40
2019-06-20T19:46:19.129Z,1.20
2019-06-20T19:48:47.591Z,1.07
2019-06-20T19:51:16.049Z,1.20
2019-06-20T19:53:46.031Z,1.30
2019-06-20T19:56:14.788Z,1.12
2019-06-20T19:58:43.309Z,1.52
2019-06-20T20:01:11.939Z,1.42
2019-06-20T20:03:40.476Z,1.55
2019-06-20T20:06:09.101Z,1.80
2019-06-20T20:08:37.657Z,1.72
2019-06-20T20:11:06.135Z,1.85
2019-06-20T20:13:34.609Z,1.87
2019-06-20T20:16:03.226Z,1.55
2019-06-20T20:18:31.688Z,1.60
2019-06-20T20:21:00.159Z,1.82
2019-06-20T20:23:28.645Z,1.65
2019-06-20T20:25:57.103Z,1.70
2019-06-20T20:28:25.708Z,1.60
2019-06-20T20:30:54.377Z,2.12
2019-06-20T20:33:22.848Z,1.92
2019-06-20T20:35:51.387Z,2.08
2019-06-20T20:38:19.860Z,2.22
2019-06-20T20:40:48.389Z,2.10
2019-06-20T20:43:16.844Z,1.80
2019-06-20T20:45:45.482Z,1.50
2019-06-20T20:48:14.086Z,1.90
2019-06-20T20:50:42.882Z,1.80
2019-06-20T20:53:11.440Z,1.40
2019-06-20T20:55:39.910Z,1.42
2019-06-20T20:58:09.445Z,1.20
2019-06-20T21:01:02.532Z,1.30
2019-06-20T21:03:31.039Z,1.20
2019-06-20T21:05:59.520Z,1.20
2019-06-20T21:08:28.364Z,1.50
2019-06-20T21:10:56.826Z,1.40
2019-06-20T21:13:25.380Z,1.15
2019-06-20T21:15:53.911Z,1.20
2019-06-20T21:18:22.507Z,1.30
2019-06-20T21:20:50.974Z,1.30
2019-06-20T21:23:19.456Z,1.65
2019-06-20T21:25:47.917Z,1.40
2019-06-20T21:28:17.289Z,1.50
2019-06-20T21:30:45.815Z,1.22
2019-06-20T21:33:26.436Z,1.30
2019-06-20T21:36:07.983Z,1.47
2019-06-20T21:38:25.362Z,1.60
2019-06-20T21:40:53.826Z,1.47
2019-06-20T21:43:22.314Z,1.30
2019-06-20T21:45:50.776Z,1.40
2019-06-20T21:48:19.375Z,1.50
2019-06-20T21:50:48.000Z,1.30
2019-06-20T21:53:16.459Z,1.30
2019-06-20T21:55:44.986Z,1.40
2019-06-20T21:58:13.459Z,1.32
2019-06-20T22:00:45.995Z,1.20
2019-06-20T22:03:14.494Z,0.90
2019-06-20T22:05:43.107Z,0.82
2019-06-20T22:08:11.643Z,0.80
2019-06-20T22:10:40.265Z,1.00
2019-06-20T22:13:08.788Z,1.10
2019-06-20T22:15:37.594Z,1.20
2019-06-20T22:18:06.225Z,1.07
2019-06-20T22:20:34.833Z,1.02
2019-06-20T22:23:03.356Z,1.00
2019-06-20T22:25:31.942Z,1.00
2019-06-20T22:28:00.467Z,1.20
2019-06-20T22:30:41.442Z,1.20
2019-06-20T22:35:37.647Z,1.10
2019-06-20T22:38:06.197Z,0.98
2019-06-20T22:40:34.654Z,1.12
2019-06-20T22:43:03.124Z,1.20
2019-06-20T22:45:31.688Z,1.00
2019-06-20T22:48:00.228Z,1.20
2019-06-20T22:50:28.686Z,1.20
2019-06-20T22:52:57.203Z,1.15
2019-06-20T22:55:25.749Z,1.30
2019-06-20T22:57:54.467Z,1.10
2019-06-20T23:00:23.182Z,1.07
2019-06-20T23:02:51.736Z,1.30
2019-06-20T23:05:20.330Z,1.80
2019-06-20T23:07:48.885Z,1.47
2019-06-20T23:10:17.852Z,1.40
2019-06-20T23:12:47.372Z,1.50
2019-06-20T23:15:17.184Z,1.70
2019-06-20T23:17:45.678Z,1.65
2019-06-20T23:20:15.425Z,1.75
2019-06-20T23:22:45.016Z,1.37
2019-06-20T23:25:15.768Z,1.37
2019-06-20T23:27:44.342Z,1.40
2019-06-20T23:30:13.958Z,1.20
2019-06-20T23:32:42.472Z,1.02
2019-06-20T23:35:11.260Z,1.30
2019-06-20T23:37:40.908Z,1.17
2019-06-20T23:40:11.296Z,1.30
2019-06-20T23:42:40.001Z,1.30
2019-06-20T23:45:09.540Z,1.37
2019-06-20T23:47:38.080Z,1.50
2019-06-20T23:50:09.415Z,1.30
2019-06-20T23:52:45.421Z,1.25
2019-06-20T23:55:14.034Z,1.12
2019-06-20T23:57:42.992Z,1.10
